createdAt,value
2019-01-16T00:01:40.918Z,8.00
2019-01-16T00:04:28.037Z,8.00
2019-01-16T00:07:15.756Z,8.00
2019-01-16T00:10:18.858Z,8.10
2019-01-16T00:13:39.062Z,8.10
2019-01-16T00:16:42.664Z,8.00
2019-01-16T00:19:32.435Z,8.00
2019-01-16T00:22:59.008Z,8.00
2019-01-16T00:25:51.618Z,8.00
2019-01-16T00:28:34.014Z,8.10
2019-01-16T00:31:15.241Z,8.10
2019-01-16T00:34:10.630Z,8.10
2019-01-16T00:37:13.295Z,8.10
2019-01-16T00:40:24.167Z,8.10
2019-01-16T00:43:34.024Z,8.00
2019-01-16T00:46:41.533Z,8.00
2019-01-16T00:49:29.259Z,8.00
2019-01-16T00:52:20.456Z,8.00
2019-01-16T00:55:10.749Z,8.00
2019-01-16T00:58:11.760Z,8.00
2019-01-16T01:01:01.504Z,8.00
2019-01-16T01:04:05.631Z,8.00
2019-01-16T01:06:53.362Z,8.00
2019-01-16T01:09:47.234Z,8.00
2019-01-16T01:12:29.679Z,8.00
2019-01-16T01:15:36.536Z,8.10
2019-01-16T01:18:31.917Z,8.10
2019-01-16T01:21:34.378Z,8.10
2019-01-16T01:24:28.999Z,8.10
2019-01-16T01:27:36.162Z,8.10
2019-01-16T01:30:32.752Z,8.00
2019-01-16T01:33:25.077Z,7.90
2019-01-16T01:36:23.363Z,7.90
2019-01-16T01:39:14.846Z,7.90
2019-01-16T01:42:12.913Z,7.90
2019-01-16T01:45:05.799Z,7.80
2019-01-16T01:48:03.534Z,7.70
2019-01-16T01:50:46.845Z,7.60
2019-01-16T01:53:56.549Z,7.70
2019-01-16T01:56:51.082Z,7.60
2019-01-16T01:59:36.506Z,7.60
2019-01-16T02:02:24.135Z,7.50
2019-01-16T02:05:24.959Z,7.60
2019-01-16T02:08:17.207Z,7.60
2019-01-16T02:11:30.912Z,7.60
2019-01-16T02:14:27.688Z,7.60
2019-01-16T02:17:15.185Z,7.60
2019-01-16T02:20:11.655Z,7.60
2019-01-16T02:23:05.435Z,7.70
2019-01-16T02:25:54.101Z,7.70
2019-01-16T02:28:46.135Z,7.70
2019-01-16T02:31:40.870Z,7.70
2019-01-16T02:34:22.075Z,7.80
2019-01-16T02:36:59.788Z,7.80
2019-01-16T02:39:51.832Z,7.80
2019-01-16T02:42:40.687Z,7.80
2019-01-16T02:45:30.921Z,7.80
2019-01-16T02:48:25.259Z,7.80
2019-01-16T02:51:01.042Z,7.80
2019-01-16T02:53:57.805Z,7.80
2019-01-16T02:56:50.921Z,7.90
2019-01-16T02:59:41.559Z,7.90
2019-01-16T03:02:33.507Z,7.90
2019-01-16T03:05:31.603Z,7.80
2019-01-16T03:08:30.225Z,7.80
2019-01-16T03:11:12.737Z,7.80
2019-01-16T03:14:07.022Z,7.80
2019-01-16T03:16:58.867Z,7.80
2019-01-16T03:19:52.612Z,7.80
2019-01-16T03:22:47.520Z,7.80
2019-01-16T03:25:39.235Z,7.80
2019-01-16T03:28:30.139Z,7.90
2019-01-16T03:31:29.147Z,7.80
2019-01-16T03:34:17.975Z,7.80
2019-01-16T03:37:33.488Z,7.80
2019-01-16T03:40:27.950Z,7.80
2019-01-16T03:43:22.748Z,7.90
2019-01-16T03:46:59.471Z,7.90
2019-01-16T03:49:36.765Z,7.90
2019-01-16T03:52:34.958Z,7.80
2019-01-16T03:55:39.952Z,7.90
2019-01-16T03:58:29.976Z,7.80
2019-01-16T04:01:21.794Z,7.80
2019-01-16T04:04:19.001Z,7.70
2019-01-16T04:07:16.806Z,7.70
2019-01-16T04:10:19.095Z,7.70
2019-01-16T04:13:18.030Z,7.70
2019-01-16T04:16:02.548Z,7.70
2019-01-16T04:19:05.858Z,7.70
2019-01-16T04:22:06.328Z,7.70
2019-01-16T04:24:55.430Z,7.70
2019-01-16T04:27:59.043Z,7.70
2019-01-16T04:30:44.937Z,7.70
2019-01-16T04:33:32.169Z,7.70
2019-01-16T04:36:19.848Z,7.70
2019-01-16T04:39:20.697Z,7.80
2019-01-16T04:42:14.190Z,7.80
2019-01-16T04:44:54.690Z,7.80
2019-01-16T04:47:52.762Z,7.80
2019-01-16T04:50:47.655Z,7.80
2019-01-16T04:53:44.643Z,7.80
2019-01-16T04:56:54.562Z,7.80
2019-01-16T05:00:00.284Z,7.80
2019-01-16T05:03:00.701Z,7.80
2019-01-16T05:05:50.067Z,7.80
2019-01-16T05:08:47.700Z,7.70
2019-01-16T05:11:35.404Z,7.80
2019-01-16T05:14:30.164Z,7.80
2019-01-16T05:17:21.853Z,7.70
2019-01-16T05:20:09.596Z,7.70
2019-01-16T05:23:04.345Z,7.70
2019-01-16T05:26:00.664Z,7.70
2019-01-16T05:28:58.015Z,7.60
2019-01-16T05:31:50.719Z,7.60
2019-01-16T05:34:32.418Z,7.60
2019-01-16T05:37:29.935Z,7.60
2019-01-16T05:40:21.580Z,7.60
2019-01-16T05:43:12.009Z,7.60
2019-01-16T05:46:00.913Z,7.60
2019-01-16T05:48:48.384Z,7.50
2019-01-16T05:51:43.147Z,7.50
2019-01-16T05:54:44.999Z,7.60
2019-01-16T05:57:33.146Z,7.60
2019-01-16T06:00:30.861Z,7.60
2019-01-16T06:03:15.508Z,7.60
2019-01-16T06:06:04.873Z,7.60
2019-01-16T06:09:06.328Z,7.60
2019-01-16T06:12:00.076Z,7.60
2019-01-16T06:15:03.585Z,7.60
2019-01-16T06:17:52.066Z,7.60
2019-01-16T06:20:47.766Z,7.60
2019-01-16T06:23:51.747Z,7.60
2019-01-16T06:27:00.570Z,7.60
2019-01-16T06:29:54.484Z,7.60
2019-01-16T06:32:49.299Z,7.60
2019-01-16T06:35:40.951Z,7.60
2019-01-16T06:38:28.300Z,7.60
2019-01-16T06:41:26.526Z,7.60
2019-01-16T06:44:18.106Z,7.60
2019-01-16T06:47:07.805Z,7.70
2019-01-16T06:50:07.987Z,7.70
2019-01-16T06:52:54.077Z,7.70
2019-01-16T06:55:38.828Z,7.70
2019-01-16T06:58:27.879Z,7.70
2019-01-16T07:01:18.169Z,7.70
2019-01-16T07:04:09.035Z,7.70
2019-01-16T07:07:07.765Z,7.70
2019-01-16T07:10:14.086Z,7.80
2019-01-16T07:13:03.088Z,7.70
2019-01-16T07:15:44.481Z,7.70
2019-01-16T07:18:50.478Z,7.70
2019-01-16T07:21:42.474Z,7.70
2019-01-16T07:24:31.176Z,7.70
2019-01-16T07:27:23.162Z,7.70
2019-01-16T07:30:24.257Z,7.80
2019-01-16T07:32:56.134Z,7.80
2019-01-16T07:35:48.187Z,7.80
2019-01-16T07:38:35.480Z,7.80
2019-01-16T07:41:30.007Z,7.80
2019-01-16T07:44:21.743Z,7.80
2019-01-16T07:47:10.330Z,7.80
2019-01-16T07:50:17.411Z,7.80
2019-01-16T07:53:03.268Z,7.80
2019-01-16T07:55:57.544Z,7.80
2019-01-16T07:58:55.094Z,7.80
2019-01-16T08:01:50.531Z,7.80
2019-01-16T08:04:39.635Z,7.90
2019-01-16T08:07:43.399Z,7.80
2019-01-16T08:10:32.185Z,7.90
2019-01-16T08:13:36.002Z,7.90
2019-01-16T08:16:33.233Z,7.90
2019-01-16T08:19:37.550Z,7.80
2019-01-16T08:22:30.666Z,7.90
2019-01-16T08:25:33.688Z,7.90
2019-01-16T08:28:40.603Z,7.90
2019-01-16T08:31:21.596Z,7.90
2019-01-16T08:34:13.361Z,7.90
2019-01-16T08:37:14.347Z,7.90
2019-01-16T08:40:12.181Z,7.90
2019-01-16T08:43:06.684Z,7.90
2019-01-16T08:46:07.224Z,7.90
2019-01-16T08:49:03.224Z,8.00
2019-01-16T08:51:57.080Z,8.00
2019-01-16T08:54:54.574Z,8.00
2019-01-16T08:57:45.983Z,7.90
2019-01-16T09:00:33.639Z,8.00
2019-01-16T09:03:17.885Z,8.00
2019-01-16T09:06:12.793Z,8.00
2019-01-16T09:09:11.272Z,8.00
2019-01-16T09:11:58.908Z,8.00
2019-01-16T09:14:56.475Z,8.00
2019-01-16T09:17:40.426Z,8.10
2019-01-16T09:20:39.953Z,8.10
2019-01-16T09:23:22.658Z,8.10
2019-01-16T09:26:23.367Z,8.10
2019-01-16T09:29:18.022Z,8.10
2019-01-16T09:32:07.447Z,8.10
2019-01-16T09:35:01.406Z,8.10
2019-01-16T09:37:48.846Z,8.20
2019-01-16T09:40:28.754Z,8.20
2019-01-16T09:43:35.996Z,8.20
2019-01-16T09:46:16.765Z,8.20
2019-01-16T09:49:14.573Z,8.20
2019-01-16T09:52:08.077Z,8.30
2019-01-16T09:55:08.377Z,8.30
2019-01-16T09:58:11.141Z,8.30
2019-01-16T10:01:15.825Z,8.30
2019-01-16T10:04:05.606Z,8.30
2019-01-16T10:07:05.932Z,8.30
2019-01-16T10:10:02.746Z,8.30
2019-01-16T10:12:57.318Z,8.30
2019-01-16T10:15:46.260Z,8.30
2019-01-16T10:18:44.070Z,8.30
2019-01-16T10:21:31.523Z,8.40
2019-01-16T10:24:19.382Z,8.40
2019-01-16T10:27:20.466Z,8.40
2019-01-16T10:30:14.598Z,8.40
2019-01-16T10:33:05.291Z,8.40
2019-01-16T10:36:00.457Z,8.40
2019-01-16T10:38:48.018Z,8.50
2019-01-16T10:41:35.267Z,8.50
2019-01-16T10:44:19.570Z,8.50
2019-01-16T10:47:17.792Z,8.50
2019-01-16T10:50:16.331Z,8.50
2019-01-16T10:53:03.652Z,8.50
2019-01-16T10:56:04.286Z,8.60
2019-01-16T10:58:55.354Z,8.60
2019-01-16T11:01:47.273Z,8.60
2019-01-16T11:04:39.333Z,8.60
2019-01-16T11:07:46.415Z,8.60
2019-01-16T11:10:47.331Z,8.60
2019-01-16T11:13:41.170Z,8.50
2019-01-16T11:16:32.334Z,8.60
2019-01-16T11:19:23.853Z,8.60
2019-01-16T11:22:15.596Z,8.70
2019-01-16T11:25:01.796Z,8.70
2019-01-16T11:27:47.535Z,8.70
2019-01-16T11:30:39.508Z,8.60
2019-01-16T11:33:31.256Z,8.60
2019-01-16T11:36:36.271Z,8.60
2019-01-16T11:39:33.517Z,8.60
2019-01-16T11:42:20.180Z,8.60
2019-01-16T11:45:10.995Z,8.70
2019-01-16T11:48:03.730Z,8.60
2019-01-16T11:50:51.216Z,8.70
2019-01-16T11:53:56.199Z,8.60
2019-01-16T11:56:56.185Z,8.60
2019-01-16T11:59:42.984Z,8.60
2019-01-16T12:02:28.246Z,8.60
2019-01-16T12:05:18.543Z,8.60
2019-01-16T12:08:07.285Z,8.50
2019-01-16T12:11:01.378Z,8.50
2019-01-16T12:14:04.998Z,8.50
2019-01-16T12:17:10.951Z,8.50
2019-01-16T12:19:58.288Z,8.60
2019-01-16T12:23:02.592Z,8.50
2019-01-16T12:25:50.275Z,8.50
2019-01-16T12:28:37.513Z,8.50
2019-01-16T12:31:45.630Z,8.50
2019-01-16T12:34:43.130Z,8.40
2019-01-16T12:37:30.999Z,8.40
2019-01-16T12:40:31.150Z,8.40
2019-01-16T12:43:09.985Z,8.40
2019-01-16T12:46:08.871Z,8.40
2019-01-16T12:49:13.133Z,8.50
2019-01-16T12:52:09.103Z,8.50
2019-01-16T12:54:56.681Z,8.50
2019-01-16T12:57:51.118Z,8.60
2019-01-16T13:00:44.003Z,8.60
2019-01-16T13:03:40.043Z,8.70
2019-01-16T13:06:30.460Z,8.60
2019-01-16T13:09:54.091Z,8.60
2019-01-16T13:12:45.801Z,8.50
2019-01-16T13:15:36.093Z,8.60
2019-01-16T13:18:29.014Z,8.60
2019-01-16T13:21:21.164Z,8.60
2019-01-16T13:24:00.639Z,8.70
2019-01-16T13:26:52.848Z,8.60
2019-01-16T13:29:41.193Z,8.60
2019-01-16T13:33:07.981Z,8.50
2019-01-16T13:36:18.895Z,8.60
2019-01-16T13:39:13.225Z,8.60
2019-01-16T13:42:06.202Z,8.60
2019-01-16T13:45:24.962Z,8.60
2019-01-16T13:48:44.010Z,8.70
2019-01-16T13:51:51.108Z,8.70
2019-01-16T13:55:33.151Z,8.70
2019-01-16T14:01:50.092Z,8.70
2019-01-16T14:05:08.211Z,8.60
2019-01-16T14:08:01.018Z,8.70
2019-01-16T14:11:21.828Z,8.70
2019-01-16T14:14:39.804Z,8.80
2019-01-16T14:17:50.850Z,8.80
2019-01-16T14:21:15.983Z,8.90
2019-01-16T14:24:04.084Z,8.90
2019-01-16T14:27:00.419Z,8.90
2019-01-16T14:33:39.266Z,8.90
2019-01-16T14:36:28.282Z,8.90
2019-01-16T14:39:23.544Z,8.90
2019-01-16T14:42:13.866Z,8.90
2019-01-16T14:45:14.781Z,8.90
2019-01-16T14:48:12.590Z,8.90
2019-01-16T14:51:05.795Z,8.90
2019-01-16T14:53:47.045Z,9.00
2019-01-16T14:56:36.066Z,9.00
2019-01-16T14:59:33.006Z,9.00
2019-01-16T15:02:23.902Z,9.00
2019-01-16T15:05:44.548Z,9.00
2019-01-16T15:08:40.558Z,9.00
2019-01-16T15:11:23.208Z,9.00
2019-01-16T15:14:18.086Z,9.00
2019-01-16T15:17:06.728Z,9.10
2019-01-16T15:20:11.014Z,9.00
2019-01-16T15:22:57.367Z,9.00
2019-01-16T15:25:51.398Z,9.00
2019-01-16T15:28:39.787Z,9.00
2019-01-16T15:31:28.846Z,9.00
2019-01-16T15:34:16.473Z,8.90
2019-01-16T15:37:12.483Z,7.90
2019-01-16T15:40:34.336Z,7.40
2019-01-16T15:43:23.076Z,6.90
2019-01-16T15:46:16.229Z,6.70
2019-01-16T15:49:10.026Z,6.70
2019-01-16T15:52:13.083Z,6.30
2019-01-16T15:55:21.980Z,6.30
2019-01-16T15:58:09.323Z,6.20
2019-01-16T16:01:03.867Z,6.00
2019-01-16T16:04:08.872Z,6.00
2019-01-16T16:07:03.364Z,5.90
2019-01-16T16:09:50.959Z,5.90
2019-01-16T16:12:53.098Z,5.90
2019-01-16T16:15:41.964Z,5.90
2019-01-16T16:18:41.155Z,5.80
2019-01-16T16:21:31.137Z,5.80
2019-01-16T16:24:22.874Z,5.90
2019-01-16T16:27:28.226Z,5.80
2019-01-16T16:30:23.160Z,5.70
2019-01-16T16:33:02.466Z,5.70
2019-01-16T16:36:04.772Z,5.70
2019-01-16T16:38:52.183Z,5.70
2019-01-16T16:41:43.917Z,5.70
2019-01-16T16:44:27.908Z,5.60
2019-01-16T16:47:38.824Z,5.60
2019-01-16T16:50:32.466Z,5.50
2019-01-16T16:53:23.368Z,5.50
2019-01-16T16:56:14.493Z,5.40
2019-01-16T16:59:06.185Z,5.40
2019-01-16T17:02:08.191Z,5.40
2019-01-16T17:05:01.636Z,5.30
2019-01-16T17:07:50.528Z,5.30
2019-01-16T17:10:42.405Z,5.20
2019-01-16T17:13:48.997Z,5.20
2019-01-16T17:16:45.162Z,5.20
2019-01-16T17:19:38.394Z,5.20
2019-01-16T17:22:32.253Z,5.10
2019-01-16T17:25:22.184Z,5.10
2019-01-16T17:28:11.236Z,5.10
2019-01-16T17:31:09.830Z,5.10
2019-01-16T17:33:54.922Z,5.10
2019-01-16T17:36:47.842Z,5.10
2019-01-16T17:39:46.433Z,5.10
2019-01-16T17:42:41.371Z,5.10
2019-01-16T17:45:33.284Z,5.00
2019-01-16T17:48:28.287Z,5.20
2019-01-16T17:51:34.341Z,5.20
2019-01-16T17:54:35.908Z,5.20
2019-01-16T17:57:31.301Z,5.20
2019-01-16T18:00:19.442Z,5.10
2019-01-16T18:03:15.487Z,5.20
2019-01-16T18:06:04.581Z,5.10
2019-01-16T18:08:52.339Z,5.00
2019-01-16T18:11:40.325Z,5.00
2019-01-16T18:14:44.372Z,5.00
2019-01-16T18:17:40.238Z,5.00
2019-01-16T18:20:35.459Z,4.90
2019-01-16T18:23:27.696Z,4.90
2019-01-16T18:26:21.257Z,4.90
2019-01-16T18:29:24.487Z,4.90
2019-01-16T18:32:28.673Z,4.80
2019-01-16T18:35:24.656Z,4.80
2019-01-16T18:38:12.129Z,4.60
2019-01-16T18:40:54.610Z,4.70
2019-01-16T18:43:49.663Z,4.70
2019-01-16T18:46:44.309Z,4.70
2019-01-16T18:49:51.775Z,4.50
2019-01-16T18:52:54.235Z,4.50
2019-01-16T18:55:59.484Z,4.40
2019-01-16T18:58:43.194Z,4.40
2019-01-16T19:01:46.153Z,4.40
2019-01-16T19:04:35.672Z,4.40
2019-01-16T19:07:34.318Z,4.30
2019-01-16T19:10:18.931Z,4.40
2019-01-16T19:13:06.361Z,4.30
2019-01-16T19:16:13.145Z,4.20
2019-01-16T19:19:19.633Z,4.20
2019-01-16T19:22:11.207Z,4.30
2019-01-16T19:24:54.360Z,4.40
2019-01-16T19:27:58.272Z,4.30
2019-01-16T19:30:59.340Z,4.30
2019-01-16T19:33:43.040Z,4.20
2019-01-16T19:36:21.456Z,4.20
2019-01-16T19:39:06.725Z,4.20
2019-01-16T19:41:53.980Z,4.20
2019-01-16T19:44:48.542Z,4.30
2019-01-16T19:47:42.716Z,4.20
2019-01-16T19:50:39.012Z,4.20
2019-01-16T19:53:31.781Z,4.20
2019-01-16T19:56:19.159Z,4.20
2019-01-16T19:59:13.947Z,4.20
2019-01-16T20:02:03.473Z,4.20
2019-01-16T20:04:58.283Z,4.10
2019-01-16T20:07:53.198Z,4.10
2019-01-16T20:10:40.822Z,3.90
2019-01-16T20:13:32.470Z,3.90
2019-01-16T20:16:19.956Z,3.90
2019-01-16T20:19:07.574Z,3.90
2019-01-16T20:21:52.589Z,3.90
2019-01-16T20:24:41.224Z,3.90
2019-01-16T20:27:42.223Z,3.90
2019-01-16T20:30:45.782Z,3.90
2019-01-16T20:37:49.641Z,3.90
2019-01-16T20:44:05.155Z,3.80
2019-01-16T20:47:08.380Z,3.70
2019-01-16T20:50:18.841Z,3.70
2019-01-16T20:53:24.268Z,3.60
2019-01-16T20:56:30.093Z,3.50
2019-01-16T20:59:45.189Z,3.40
2019-01-16T21:02:45.324Z,3.40
2019-01-16T21:06:53.863Z,3.30
2019-01-16T21:08:45.808Z,3.30
2019-01-16T21:17:39.204Z,3.20
2019-01-16T21:24:01.815Z,3.20
2019-01-16T21:26:59.611Z,3.30
2019-01-16T21:30:22.999Z,3.20
2019-01-16T21:33:27.966Z,3.20
2019-01-16T21:36:58.059Z,3.10
2019-01-16T21:40:19.724Z,3.10
2019-01-16T21:43:31.429Z,3.10
2019-01-16T21:46:38.545Z,3.10
2019-01-16T21:53:16.187Z,3.00
2019-01-16T21:56:14.231Z,3.10
2019-01-16T22:02:16.828Z,2.90
2019-01-16T22:05:22.748Z,2.70
2019-01-16T22:08:35.769Z,2.60
2019-01-16T22:11:35.494Z,2.60
2019-01-16T22:18:07.375Z,2.50
2019-01-16T22:21:19.742Z,2.20
2019-01-16T22:24:12.747Z,2.00
2019-01-16T22:27:51.785Z,1.90
2019-01-16T22:31:11.341Z,1.80
2019-01-16T22:34:13.019Z,1.90
2019-01-16T22:37:17.298Z,2.00
2019-01-16T22:43:56.286Z,1.80
2019-01-16T22:50:09.297Z,2.00
2019-01-16T22:53:20.845Z,2.20
2019-01-16T22:56:20.219Z,2.40
2019-01-16T22:59:25.510Z,2.40
2019-01-16T23:02:15.987Z,2.60
2019-01-16T23:05:16.608Z,2.50
2019-01-16T23:08:32.319Z,2.30
2019-01-16T23:11:34.859Z,2.10
2019-01-16T23:14:33.185Z,2.10
2019-01-16T23:17:33.639Z,2.20
2019-01-16T23:20:32.199Z,2.30
2019-01-16T23:23:52.159Z,2.30
2019-01-16T23:27:17.602Z,2.50
2019-01-16T23:30:08.852Z,2.40
2019-01-16T23:33:12.816Z,2.40
2019-01-16T23:36:13.690Z,2.30
2019-01-16T23:39:10.590Z,2.20
2019-01-16T23:42:29.277Z,2.10
2019-01-16T23:45:57.603Z,2.10
2019-01-16T23:48:55.307Z,2.00
2019-01-16T23:51:36.049Z,2.00
2019-01-16T23:54:38.858Z,1.90
2019-01-16T23:57:28.428Z,1.90
